Sumifukumaru No.5 — JD3058 — position and weather

sailwx.info

Track history (hours):
 
Tides and Currents Weather Stations Pressure Air Temp Water Temp Dewpoint Dewpoint Depression Visibility Wind Speed Wind Dir Waves Ship Positions

Sumifukumaru No.5

Last reported at 2014-Sep-29 23:33 UTC. Time now 2014-Oct-01 04:16 UTC.
Position N 35°12' E 139°46'.

Length 75 m; draft 4.4 m.

Type: Cargo ship. MMSI: 431001371.

Date/timePositionNaut miles runAvg speedWind from/ knotsBaromVisibWave heightAir tempDewpointWater temp
2014-Sep-29 23:33N 35°12' E 139°46'1110.8
2014-Sep-29 22:33N 35°22' E 139°42'  
2014-Sep-27 03:26N 35°36' E 139°50'910.0
2014-Sep-27 02:33N 35°27' E 139°51'6 5.6
2014-Sep-27 01:33N 35°22' E 139°51'0 0.0
2014-Sep-27 00:33N 35°22' E 139°51'0 0.0
2014-Sep-26 23:27N 35°22' E 139°51'0 0.0
2014-Sep-26 22:21N 35°22' E 139°51'0 0.0
2014-Sep-26 21:33N 35°22' E 139°51'0 0.0
2014-Sep-26 20:24N 35°22' E 139°51'0 0.0
2014-Sep-26 19:33N 35°22' E 139°51'0 0.0
2014-Sep-26 18:33N 35°22' E 139°51'0 0.0
2014-Sep-26 17:33N 35°22' E 139°51'0 0.0
2014-Sep-26 16:27N 35°22' E 139°51'0 0.0
2014-Sep-26 15:33N 35°22' E 139°51'0 0.0
2014-Sep-26 14:33N 35°22' E 139°51'0 0.0
2014-Sep-26 13:27N 35°22' E 139°51'0 0.0
2014-Sep-26 12:27N 35°22' E 139°51'0 0.0
2014-Sep-26 11:09N 35°22' E 139°51'0 0.0
2014-Sep-26 10:33N 35°22' E 139°51'0 0.0
2014-Sep-26 09:30N 35°22' E 139°51'2 2.3
2014-Sep-26 08:33N 35°23' E 139°49'  
2014-Sep-22 11:21N 34°05' E 135°02'911.5
2014-Sep-22 10:33N 34°14' E 135°02'1211.1
2014-Sep-22 09:30N 34°24' E 135°09'1111.7
2014-Sep-22 08:33N 34°32' E 135°18'8 7.6
2014-Sep-22 07:31N 34°35' E 135°27'0 0.0
2014-Sep-22 06:25N 34°35' E 135°27'0 0.0
2014-Sep-22 04:07N 34°35' E 135°27'0 0.0
2014-Sep-22 03:25N 34°35' E 135°27'0 0.0
2014-Sep-22 02:07N 34°35' E 135°27'0 0.0
2014-Sep-22 01:25N 34°35' E 135°27'0 0.0
2014-Sep-22 00:19N 34°35' E 135°27'0 0.0
2014-Sep-21 22:18N 34°35' E 135°27'1 0.0
2014-Sep-21 05:33N 34°35' E 135°28'0 0.2
2014-Sep-21 03:31N 34°35' E 135°27'0 0.0
2014-Sep-21 02:25N 34°35' E 135°27'0 0.0
2014-Sep-21 00:31N 34°35' E 135°27'0 0.0
2014-Sep-20 22:05N 34°35' E 135°27'1 1.1
2014-Sep-20 21:28N 34°35' E 135°27'0 0.0
2014-Sep-20 20:22N 34°35' E 135°27'0 0.0
2014-Sep-20 19:28N 34°35' E 135°27'0 0.0
2014-Sep-20 18:28N 34°35' E 135°27'0 0.0
2014-Sep-20 17:28N 34°35' E 135°27'0 0.0
2014-Sep-20 16:28N 34°35' E 135°27'0 0.0
2014-Sep-20 15:28N 34°35' E 135°27'0 0.0
2014-Sep-20 14:22N 34°35' E 135°27'0 0.0
2014-Sep-20 13:28N 34°35' E 135°27'0 0.0
2014-Sep-20 12:28N 34°35' E 135°27'0 0.0
2014-Sep-20 11:28N 34°35' E 135°27'0 0.0
2014-Sep-20 10:22N 34°35' E 135°27'0 0.0
2014-Sep-20 09:28N 34°35' E 135°27'0 0.0
2014-Sep-20 07:31N 34°35' E 135°27'8 8.4
2014-Sep-20 06:33N 34°32' E 135°18'2010.1
2014-Sep-20 04:33N 34°15' E 135°05'2 1.7
2014-Sep-20 03:30N 34°15' E 135°07'0 0.0
2014-Sep-20 02:33N 34°15' E 135°07'0 0.0
2014-Sep-20 01:30N 34°15' E 135°07'0 0.0
2014-Sep-20 00:30N 34°15' E 135°07'  
Track history (hours):
 
Tides and Currents Weather Stations Pressure Air Temp Water Temp Dewpoint Dewpoint Depression Visibility Wind Speed Wind Dir Waves Ship Positions

Sumifukumaru No.5

Last reported at 2014-Sep-29 23:33 UTC. Time now 2014-Oct-01 04:16 UTC.
Position N 35°12' E 139°46'.

Length 75 m; draft 4.4 m.

Type: Cargo ship. MMSI: 431001371.

Date/timePositionNaut miles runAvg speedWind from/ knotsBaromVisibWave heightAir tempDewpointWater temp
2014-Sep-29 23:33N 35°12' E 139°46'1110.8
2014-Sep-29 22:33N 35°22' E 139°42'  
2014-Sep-27 03:26N 35°36' E 139°50'910.0
2014-Sep-27 02:33N 35°27' E 139°51'6 5.6
2014-Sep-27 01:33N 35°22' E 139°51'0 0.0
2014-Sep-27 00:33N 35°22' E 139°51'0 0.0
2014-Sep-26 23:27N 35°22' E 139°51'0 0.0
2014-Sep-26 22:21N 35°22' E 139°51'0 0.0
2014-Sep-26 21:33N 35°22' E 139°51'0 0.0
2014-Sep-26 20:24N 35°22' E 139°51'0 0.0
2014-Sep-26 19:33N 35°22' E 139°51'0 0.0
2014-Sep-26 18:33N 35°22' E 139°51'0 0.0
2014-Sep-26 17:33N 35°22' E 139°51'0 0.0
2014-Sep-26 16:27N 35°22' E 139°51'0 0.0
2014-Sep-26 15:33N 35°22' E 139°51'0 0.0
2014-Sep-26 14:33N 35°22' E 139°51'0 0.0
2014-Sep-26 13:27N 35°22' E 139°51'0 0.0
2014-Sep-26 12:27N 35°22' E 139°51'0 0.0
2014-Sep-26 11:09N 35°22' E 139°51'0 0.0
2014-Sep-26 10:33N 35°22' E 139°51'0 0.0
2014-Sep-26 09:30N 35°22' E 139°51'2 2.3
2014-Sep-26 08:33N 35°23' E 139°49'  
2014-Sep-22 11:21N 34°05' E 135°02'911.5
2014-Sep-22 10:33N 34°14' E 135°02'1211.1
2014-Sep-22 09:30N 34°24' E 135°09'1111.7
2014-Sep-22 08:33N 34°32' E 135°18'8 7.6
2014-Sep-22 07:31N 34°35' E 135°27'0 0.0
2014-Sep-22 06:25N 34°35' E 135°27'0 0.0
2014-Sep-22 04:07N 34°35' E 135°27'0 0.0
2014-Sep-22 03:25N 34°35' E 135°27'0 0.0
2014-Sep-22 02:07N 34°35' E 135°27'0 0.0
2014-Sep-22 01:25N 34°35' E 135°27'0 0.0
2014-Sep-22 00:19N 34°35' E 135°27'0 0.0
2014-Sep-21 22:18N 34°35' E 135°27'1 0.0
2014-Sep-21 05:33N 34°35' E 135°28'0 0.2
2014-Sep-21 03:31N 34°35' E 135°27'0 0.0
2014-Sep-21 02:25N 34°35' E 135°27'0 0.0
2014-Sep-21 00:31N 34°35' E 135°27'0 0.0
2014-Sep-20 22:05N 34°35' E 135°27'1 1.1
2014-Sep-20 21:28N 34°35' E 135°27'0 0.0
2014-Sep-20 20:22N 34°35' E 135°27'0 0.0
2014-Sep-20 19:28N 34°35' E 135°27'0 0.0
2014-Sep-20 18:28N 34°35' E 135°27'0 0.0
2014-Sep-20 17:28N 34°35' E 135°27'0 0.0
2014-Sep-20 16:28N 34°35' E 135°27'0 0.0
2014-Sep-20 15:28N 34°35' E 135°27'0 0.0
2014-Sep-20 14:22N 34°35' E 135°27'0 0.0
2014-Sep-20 13:28N 34°35' E 135°27'0 0.0
2014-Sep-20 12:28N 34°35' E 135°27'0 0.0
2014-Sep-20 11:28N 34°35' E 135°27'0 0.0
2014-Sep-20 10:22N 34°35' E 135°27'0 0.0
2014-Sep-20 09:28N 34°35' E 135°27'0 0.0
2014-Sep-20 07:31N 34°35' E 135°27'8 8.4
2014-Sep-20 06:33N 34°32' E 135°18'2010.1
2014-Sep-20 04:33N 34°15' E 135°05'2 1.7
2014-Sep-20 03:30N 34°15' E 135°07'0 0.0
2014-Sep-20 02:33N 34°15' E 135°07'0 0.0
2014-Sep-20 01:30N 34°15' E 135°07'0 0.0
2014-Sep-20 00:30N 34°15' E 135°07'  

Dump ship's entire track history